sensor_id;sensor_type;location;lat;lon;timestamp;P1;durP1;ratioP1;P2;durP2;ratioP2
36575;SDS011;45700;50.930;5.168;2023-01-30T00:00:00;29.05;;;10.90;;
36575;SDS011;45700;50.930;5.168;2023-01-30T00:04:01;32.38;;;11.25;;
36575;SDS011;45700;50.930;5.168;2023-01-30T00:08:03;33.35;;;11.50;;
36575;SDS011;45700;50.930;5.168;2023-01-30T00:12:04;35.45;;;10.45;;
36575;SDS011;45700;50.930;5.168;2023-01-30T00:16:05;26.33;;;9.93;;
36575;SDS011;45700;50.930;5.168;2023-01-30T00:20:08;38.10;;;11.20;;
36575;SDS011;45700;50.930;5.168;2023-01-30T00:24:09;31.83;;;11.63;;
36575;SDS011;45700;50.930;5.168;2023-01-30T00:28:10;30.20;;;11.68;;
36575;SDS011;45700;50.930;5.168;2023-01-30T00:32:11;42.33;;;12.32;;
36575;SDS011;45700;50.930;5.168;2023-01-30T00:36:12;30.40;;;12.27;;
36575;SDS011;45700;50.930;5.168;2023-01-30T00:40:13;38.22;;;12.60;;
36575;SDS011;45700;50.930;5.168;2023-01-30T00:44:14;35.03;;;12.95;;
36575;SDS011;45700;50.930;5.168;2023-01-30T00:48:34;34.45;;;11.48;;
36575;SDS011;45700;50.930;5.168;2023-01-30T00:52:35;34.97;;;12.15;;
36575;SDS011;45700;50.930;5.168;2023-01-30T00:56:36;37.70;;;12.30;;
36575;SDS011;45700;50.930;5.168;2023-01-30T01:00:37;35.05;;;12.18;;
36575;SDS011;45700;50.930;5.168;2023-01-30T01:04:39;37.67;;;12.13;;
36575;SDS011;45700;50.930;5.168;2023-01-30T01:08:42;36.47;;;11.93;;
36575;SDS011;45700;50.930;5.168;2023-01-30T01:12:44;40.72;;;13.48;;
36575;SDS011;45700;50.930;5.168;2023-01-30T01:16:45;37.53;;;11.68;;
36575;SDS011;45700;50.930;5.168;2023-01-30T01:20:46;33.42;;;12.38;;
36575;SDS011;45700;50.930;5.168;2023-01-30T01:24:47;35.95;;;11.95;;
36575;SDS011;45700;50.930;5.168;2023-01-30T01:28:48;43.92;;;12.80;;
36575;SDS011;45700;50.930;5.168;2023-01-30T01:32:49;36.40;;;12.20;;
36575;SDS011;45700;50.930;5.168;2023-01-30T01:36:50;43.65;;;12.05;;
36575;SDS011;45700;50.930;5.168;2023-01-30T01:40:51;38.72;;;10.02;;
36575;SDS011;45700;50.930;5.168;2023-01-30T01:49:31;37.38;;;11.93;;
36575;SDS011;45700;50.930;5.168;2023-01-30T01:53:34;41.35;;;12.80;;
36575;SDS011;45700;50.930;5.168;2023-01-30T01:57:41;46.25;;;12.80;;
36575;SDS011;45700;50.930;5.168;2023-01-30T02:01:43;34.42;;;12.82;;
36575;SDS011;45700;50.930;5.168;2023-01-30T02:05:45;37.20;;;12.48;;
36575;SDS011;45700;50.930;5.168;2023-01-30T02:09:48;33.28;;;10.93;;
36575;SDS011;45700;50.930;5.168;2023-01-30T02:13:50;33.03;;;10.63;;
36575;SDS011;45700;50.930;5.168;2023-01-30T02:17:51;33.75;;;12.77;;
36575;SDS011;45700;50.930;5.168;2023-01-30T02:38:33;32.28;;;9.88;;
36575;SDS011;45700;50.930;5.168;2023-01-30T02:42:37;30.48;;;11.57;;
36575;SDS011;45700;50.930;5.168;2023-01-30T02:46:42;30.92;;;10.38;;
36575;SDS011;45700;50.930;5.168;2023-01-30T02:50:51;32.92;;;10.60;;
36575;SDS011;45700;50.930;5.168;2023-01-30T02:54:53;31.48;;;9.38;;
36575;SDS011;45700;50.930;5.168;2023-01-30T02:58:58;31.65;;;10.07;;
36575;SDS011;45700;50.930;5.168;2023-01-30T03:11:10;27.17;;;9.55;;
36575;SDS011;45700;50.930;5.168;2023-01-30T03:15:16;28.05;;;9.88;;
36575;SDS011;45700;50.930;5.168;2023-01-30T03:19:19;30.95;;;10.63;;
36575;SDS011;45700;50.930;5.168;2023-01-30T03:23:20;28.67;;;9.75;;
36575;SDS011;45700;50.930;5.168;2023-01-30T03:27:21;24.05;;;9.32;;
36575;SDS011;45700;50.930;5.168;2023-01-30T03:31:22;26.35;;;9.77;;
36575;SDS011;45700;50.930;5.168;2023-01-30T03:35:23;28.55;;;8.55;;
36575;SDS011;45700;50.930;5.168;2023-01-30T03:39:24;27.20;;;8.27;;
36575;SDS011;45700;50.930;5.168;2023-01-30T03:43:25;32.95;;;9.90;;
36575;SDS011;45700;50.930;5.168;2023-01-30T03:47:26;30.85;;;8.77;;
36575;SDS011;45700;50.930;5.168;2023-01-30T03:51:27;23.25;;;8.15;;
36575;SDS011;45700;50.930;5.168;2023-01-30T03:55:28;25.10;;;7.40;;
36575;SDS011;45700;50.930;5.168;2023-01-30T03:59:29;27.00;;;9.05;;
36575;SDS011;45700;50.930;5.168;2023-01-30T04:03:31;18.13;;;7.13;;
36575;SDS011;45700;50.930;5.168;2023-01-30T04:07:32;22.92;;;7.82;;
36575;SDS011;45700;50.930;5.168;2023-01-30T04:11:33;21.90;;;7.00;;
36575;SDS011;45700;50.930;5.168;2023-01-30T04:15:34;18.83;;;6.80;;
36575;SDS011;45700;50.930;5.168;2023-01-30T04:19:35;18.58;;;7.40;;
36575;SDS011;45700;50.930;5.168;2023-01-30T04:23:36;21.15;;;7.22;;
36575;SDS011;45700;50.930;5.168;2023-01-30T04:27:37;22.17;;;7.05;;
36575;SDS011;45700;50.930;5.168;2023-01-30T04:31:38;19.38;;;7.25;;
36575;SDS011;45700;50.930;5.168;2023-01-30T04:35:39;28.30;;;8.20;;
36575;SDS011;45700;50.930;5.168;2023-01-30T04:39:40;19.77;;;6.88;;
36575;SDS011;45700;50.930;5.168;2023-01-30T04:43:41;19.08;;;6.88;;
36575;SDS011;45700;50.930;5.168;2023-01-30T04:47:42;19.17;;;7.63;;
36575;SDS011;45700;50.930;5.168;2023-01-30T04:51:43;18.02;;;7.28;;
36575;SDS011;45700;50.930;5.168;2023-01-30T04:55:45;24.83;;;7.88;;
36575;SDS011;45700;50.930;5.168;2023-01-30T04:59:46;21.50;;;7.22;;
36575;SDS011;45700;50.930;5.168;2023-01-30T05:03:51;22.83;;;7.43;;
36575;SDS011;45700;50.930;5.168;2023-01-30T05:07:52;22.80;;;8.00;;
36575;SDS011;45700;50.930;5.168;2023-01-30T05:11:53;22.70;;;7.00;;
36575;SDS011;45700;50.930;5.168;2023-01-30T05:15:54;22.50;;;6.78;;
36575;SDS011;45700;50.930;5.168;2023-01-30T05:19:55;18.85;;;6.63;;
36575;SDS011;45700;50.930;5.168;2023-01-30T05:23:57;12.55;;;5.43;;
36575;SDS011;45700;50.930;5.168;2023-01-30T05:27:58;16.95;;;6.15;;
36575;SDS011;45700;50.930;5.168;2023-01-30T05:31:59;17.42;;;6.43;;
36575;SDS011;45700;50.930;5.168;2023-01-30T05:36:00;14.60;;;5.90;;
36575;SDS011;45700;50.930;5.168;2023-01-30T05:40:01;17.30;;;5.43;;
36575;SDS011;45700;50.930;5.168;2023-01-30T05:44:02;12.82;;;4.90;;
36575;SDS011;45700;50.930;5.168;2023-01-30T05:48:03;14.32;;;5.25;;
36575;SDS011;45700;50.930;5.168;2023-01-30T05:52:04;14.23;;;5.07;;
36575;SDS011;45700;50.930;5.168;2023-01-30T05:56:05;19.70;;;5.38;;
36575;SDS011;45700;50.930;5.168;2023-01-30T06:00:07;13.15;;;4.88;;
36575;SDS011;45700;50.930;5.168;2023-01-30T06:04:09;13.68;;;5.28;;
36575;SDS011;45700;50.930;5.168;2023-01-30T06:08:10;11.70;;;5.30;;
36575;SDS011;45700;50.930;5.168;2023-01-30T06:12:11;11.93;;;5.82;;
36575;SDS011;45700;50.930;5.168;2023-01-30T06:16:13;15.90;;;6.07;;
36575;SDS011;45700;50.930;5.168;2023-01-30T06:20:14;18.25;;;5.57;;
36575;SDS011;45700;50.930;5.168;2023-01-30T06:24:15;13.63;;;5.72;;
36575;SDS011;45700;50.930;5.168;2023-01-30T06:28:16;20.00;;;6.10;;
36575;SDS011;45700;50.930;5.168;2023-01-30T06:32:18;16.67;;;5.70;;
36575;SDS011;45700;50.930;5.168;2023-01-30T06:36:19;17.33;;;5.60;;
36575;SDS011;45700;50.930;5.168;2023-01-30T06:40:20;14.13;;;5.43;;
36575;SDS011;45700;50.930;5.168;2023-01-30T06:44:21;12.52;;;5.97;;
36575;SDS011;45700;50.930;5.168;2023-01-30T06:48:22;13.57;;;5.70;;
36575;SDS011;45700;50.930;5.168;2023-01-30T06:52:23;19.02;;;6.65;;
36575;SDS011;45700;50.930;5.168;2023-01-30T06:56:24;15.05;;;6.47;;
36575;SDS011;45700;50.930;5.168;2023-01-30T07:00:25;14.30;;;6.43;;
36575;SDS011;45700;50.930;5.168;2023-01-30T07:04:26;16.92;;;6.85;;
36575;SDS011;45700;50.930;5.168;2023-01-30T07:08:27;20.70;;;7.43;;
36575;SDS011;45700;50.930;5.168;2023-01-30T07:12:28;14.23;;;5.97;;
36575;SDS011;45700;50.930;5.168;2023-01-30T07:16:29;18.50;;;6.50;;
36575;SDS011;45700;50.930;5.168;2023-01-30T07:20:30;12.85;;;5.90;;
36575;SDS011;45700;50.930;5.168;2023-01-30T07:24:31;17.88;;;5.40;;
36575;SDS011;45700;50.930;5.168;2023-01-30T07:28:32;15.38;;;6.00;;
36575;SDS011;45700;50.930;5.168;2023-01-30T07:32:33;14.07;;;5.82;;
36575;SDS011;45700;50.930;5.168;2023-01-30T07:36:34;12.27;;;5.57;;
36575;SDS011;45700;50.930;5.168;2023-01-30T07:40:36;18.83;;;6.07;;
36575;SDS011;45700;50.930;5.168;2023-01-30T07:44:37;18.50;;;6.20;;
36575;SDS011;45700;50.930;5.168;2023-01-30T07:48:38;14.77;;;5.15;;
36575;SDS011;45700;50.930;5.168;2023-01-30T07:52:39;20.30;;;5.72;;
36575;SDS011;45700;50.930;5.168;2023-01-30T07:56:40;19.88;;;6.03;;
36575;SDS011;45700;50.930;5.168;2023-01-30T08:00:41;11.07;;;5.20;;
36575;SDS011;45700;50.930;5.168;2023-01-30T08:04:42;12.77;;;5.63;;
36575;SDS011;45700;50.930;5.168;2023-01-30T08:08:44;16.00;;;5.22;;
36575;SDS011;45700;50.930;5.168;2023-01-30T08:12:45;18.38;;;5.15;;
36575;SDS011;45700;50.930;5.168;2023-01-30T08:16:46;13.73;;;4.70;;
36575;SDS011;45700;50.930;5.168;2023-01-30T08:20:47;11.10;;;4.55;;
36575;SDS011;45700;50.930;5.168;2023-01-30T08:24:49;14.05;;;3.95;;
36575;SDS011;45700;50.930;5.168;2023-01-30T08:28:50;10.55;;;3.70;;
36575;SDS011;45700;50.930;5.168;2023-01-30T08:32:51;8.23;;;3.25;;
36575;SDS011;45700;50.930;5.168;2023-01-30T08:36:52;14.13;;;4.18;;
36575;SDS011;45700;50.930;5.168;2023-01-30T08:40:53;15.93;;;4.35;;
36575;SDS011;45700;50.930;5.168;2023-01-30T08:44:56;13.27;;;3.67;;
36575;SDS011;45700;50.930;5.168;2023-01-30T08:48:57;9.73;;;3.40;;
36575;SDS011;45700;50.930;5.168;2023-01-30T08:53:07;7.13;;;3.45;;
36575;SDS011;45700;50.930;5.168;2023-01-30T08:57:09;14.45;;;3.78;;
36575;SDS011;45700;50.930;5.168;2023-01-30T09:01:10;12.52;;;2.90;;
36575;SDS011;45700;50.930;5.168;2023-01-30T09:05:11;9.70;;;3.13;;
36575;SDS011;45700;50.930;5.168;2023-01-30T09:09:12;16.73;;;2.78;;
36575;SDS011;45700;50.930;5.168;2023-01-30T09:13:13;7.40;;;2.10;;
36575;SDS011;45700;50.930;5.168;2023-01-30T09:17:14;13.68;;;2.10;;
36575;SDS011;45700;50.930;5.168;2023-01-30T09:21:15;9.70;;;2.17;;
36575;SDS011;45700;50.930;5.168;2023-01-30T09:25:16;11.32;;;2.33;;
36575;SDS011;45700;50.930;5.168;2023-01-30T09:29:17;13.02;;;2.15;;
36575;SDS011;45700;50.930;5.168;2023-01-30T09:33:18;9.75;;;3.03;;
36575;SDS011;45700;50.930;5.168;2023-01-30T09:37:19;12.57;;;2.75;;
36575;SDS011;45700;50.930;5.168;2023-01-30T09:57:46;11.35;;;1.33;;
36575;SDS011;45700;50.930;5.168;2023-01-30T10:01:54;6.85;;;1.70;;
36575;SDS011;45700;50.930;5.168;2023-01-30T10:23:15;11.93;;;1.63;;
36575;SDS011;45700;50.930;5.168;2023-01-30T10:27:20;12.52;;;1.50;;
36575;SDS011;45700;50.930;5.168;2023-01-30T10:31:22;14.38;;;1.90;;
36575;SDS011;45700;50.930;5.168;2023-01-30T10:35:30;7.82;;;1.50;;
36575;SDS011;45700;50.930;5.168;2023-01-30T10:43:40;8.35;;;1.67;;
36575;SDS011;45700;50.930;5.168;2023-01-30T10:56:32;11.48;;;1.52;;
36575;SDS011;45700;50.930;5.168;2023-01-30T11:00:38;7.25;;;1.10;;
36575;SDS011;45700;50.930;5.168;2023-01-30T11:08:54;9.00;;;1.23;;
36575;SDS011;45700;50.930;5.168;2023-01-30T11:12:59;16.98;;;2.40;;
36575;SDS011;45700;50.930;5.168;2023-01-30T11:17:13;4.82;;;1.25;;
36575;SDS011;45700;50.930;5.168;2023-01-30T11:21:21;11.30;;;1.57;;
36575;SDS011;45700;50.930;5.168;2023-01-30T11:25:23;16.05;;;2.05;;
36575;SDS011;45700;50.930;5.168;2023-01-30T11:29:27;6.50;;;1.20;;
36575;SDS011;45700;50.930;5.168;2023-01-30T11:33:32;6.25;;;1.58;;
36575;SDS011;45700;50.930;5.168;2023-01-30T11:41:34;7.68;;;1.30;;
36575;SDS011;45700;50.930;5.168;2023-01-30T11:45:36;11.15;;;1.63;;
36575;SDS011;45700;50.930;5.168;2023-01-30T11:49:40;5.53;;;1.27;;
36575;SDS011;45700;50.930;5.168;2023-01-30T11:53:43;8.43;;;1.60;;
36575;SDS011;45700;50.930;5.168;2023-01-30T11:57:52;5.78;;;1.60;;
36575;SDS011;45700;50.930;5.168;2023-01-30T12:06:20;5.05;;;1.65;;
36575;SDS011;45700;50.930;5.168;2023-01-30T12:10:28;4.60;;;1.17;;
36575;SDS011;45700;50.930;5.168;2023-01-30T12:18:32;6.05;;;0.82;;
36575;SDS011;45700;50.930;5.168;2023-01-30T12:26:58;11.70;;;0.90;;
36575;SDS011;45700;50.930;5.168;2023-01-30T12:35:14;9.00;;;2.08;;
36575;SDS011;45700;50.930;5.168;2023-01-30T12:43:42;7.45;;;1.85;;
36575;SDS011;45700;50.930;5.168;2023-01-30T12:51:57;12.15;;;1.38;;
36575;SDS011;45700;50.930;5.168;2023-01-30T13:22:02;7.57;;;1.15;;
36575;SDS011;45700;50.930;5.168;2023-01-30T13:25:41;10.75;;;1.17;;
36575;SDS011;45700;50.930;5.168;2023-01-30T13:29:44;8.73;;;1.77;;
36575;SDS011;45700;50.930;5.168;2023-01-30T13:33:48;20.42;;;2.17;;
36575;SDS011;45700;50.930;5.168;2023-01-30T13:37:49;8.30;;;1.40;;
36575;SDS011;45700;50.930;5.168;2023-01-30T13:41:52;15.85;;;1.50;;
36575;SDS011;45700;50.930;5.168;2023-01-30T13:45:56;6.43;;;1.38;;
36575;SDS011;45700;50.930;5.168;2023-01-30T13:54:55;6.20;;;1.48;;
36575;SDS011;45700;50.930;5.168;2023-01-30T14:11:43;8.27;;;1.20;;
36575;SDS011;45700;50.930;5.168;2023-01-30T14:24:01;5.88;;;1.25;;
36575;SDS011;45700;50.930;5.168;2023-01-30T14:52:53;15.88;;;1.77;;
36575;SDS011;45700;50.930;5.168;2023-01-30T14:57:02;8.27;;;1.17;;
36575;SDS011;45700;50.930;5.168;2023-01-30T15:01:04;6.75;;;1.00;;
36575;SDS011;45700;50.930;5.168;2023-01-30T15:05:10;8.48;;;1.17;;
36575;SDS011;45700;50.930;5.168;2023-01-30T15:09:19;14.27;;;2.17;;
36575;SDS011;45700;50.930;5.168;2023-01-30T15:30:56;9.20;;;1.00;;
36575;SDS011;45700;50.930;5.168;2023-01-30T15:34:57;4.63;;;0.98;;
36575;SDS011;45700;50.930;5.168;2023-01-30T15:38:59;6.25;;;1.05;;
36575;SDS011;45700;50.930;5.168;2023-01-30T15:47:50;10.25;;;0.90;;
36575;SDS011;45700;50.930;5.168;2023-01-30T15:51:40;5.32;;;1.65;;
36575;SDS011;45700;50.930;5.168;2023-01-30T15:55:41;4.65;;;0.90;;
36575;SDS011;45700;50.930;5.168;2023-01-30T15:59:42;18.13;;;2.42;;
36575;SDS011;45700;50.930;5.168;2023-01-30T16:03:44;12.57;;;1.35;;
36575;SDS011;45700;50.930;5.168;2023-01-30T16:07:46;5.15;;;0.85;;
36575;SDS011;45700;50.930;5.168;2023-01-30T16:11:47;15.10;;;1.75;;
36575;SDS011;45700;50.930;5.168;2023-01-30T16:19:53;8.02;;;1.50;;
36575;SDS011;45700;50.930;5.168;2023-01-30T16:23:55;16.70;;;1.60;;
36575;SDS011;45700;50.930;5.168;2023-01-30T16:27:59;8.73;;;1.00;;
36575;SDS011;45700;50.930;5.168;2023-01-30T16:32:09;8.00;;;0.63;;
36575;SDS011;45700;50.930;5.168;2023-01-30T16:44:23;11.52;;;1.52;;
36575;SDS011;45700;50.930;5.168;2023-01-30T16:48:28;8.13;;;1.55;;
36575;SDS011;45700;50.930;5.168;2023-01-30T16:52:30;6.13;;;1.52;;
36575;SDS011;45700;50.930;5.168;2023-01-30T16:56:35;10.65;;;1.92;;
36575;SDS011;45700;50.930;5.168;2023-01-30T17:00:37;9.43;;;1.85;;
36575;SDS011;45700;50.930;5.168;2023-01-30T17:04:39;10.60;;;1.52;;
36575;SDS011;45700;50.930;5.168;2023-01-30T17:12:46;8.13;;;1.42;;
36575;SDS011;45700;50.930;5.168;2023-01-30T17:17:00;13.38;;;1.92;;
36575;SDS011;45700;50.930;5.168;2023-01-30T17:21:02;14.27;;;1.15;;
36575;SDS011;45700;50.930;5.168;2023-01-30T17:25:48;5.95;;;1.20;;
36575;SDS011;45700;50.930;5.168;2023-01-30T17:29:25;7.90;;;1.63;;
36575;SDS011;45700;50.930;5.168;2023-01-30T17:33:26;13.63;;;1.60;;
36575;SDS011;45700;50.930;5.168;2023-01-30T17:37:27;12.93;;;2.22;;
36575;SDS011;45700;50.930;5.168;2023-01-30T17:41:28;10.75;;;1.63;;
36575;SDS011;45700;50.930;5.168;2023-01-30T17:45:31;6.15;;;1.85;;
36575;SDS011;45700;50.930;5.168;2023-01-30T17:49:33;14.77;;;1.92;;
36575;SDS011;45700;50.930;5.168;2023-01-30T17:53:33;16.50;;;2.35;;
36575;SDS011;45700;50.930;5.168;2023-01-30T17:57:34;8.23;;;1.30;;
36575;SDS011;45700;50.930;5.168;2023-01-30T18:01:36;8.68;;;2.28;;
36575;SDS011;45700;50.930;5.168;2023-01-30T18:05:37;10.68;;;1.60;;
36575;SDS011;45700;50.930;5.168;2023-01-30T18:09:38;13.73;;;2.40;;
36575;SDS011;45700;50.930;5.168;2023-01-30T18:13:39;15.10;;;1.42;;
36575;SDS011;45700;50.930;5.168;2023-01-30T18:17:46;12.00;;;2.05;;
36575;SDS011;45700;50.930;5.168;2023-01-30T18:21:48;13.30;;;1.75;;
36575;SDS011;45700;50.930;5.168;2023-01-30T18:25:49;12.20;;;1.85;;
36575;SDS011;45700;50.930;5.168;2023-01-30T18:29:50;14.35;;;1.60;;
36575;SDS011;45700;50.930;5.168;2023-01-30T18:33:51;17.63;;;2.35;;
36575;SDS011;45700;50.930;5.168;2023-01-30T18:37:54;15.70;;;2.80;;
36575;SDS011;45700;50.930;5.168;2023-01-30T18:41:55;20.52;;;2.05;;
36575;SDS011;45700;50.930;5.168;2023-01-30T18:46:03;20.67;;;3.05;;
36575;SDS011;45700;50.930;5.168;2023-01-30T18:50:04;11.15;;;1.67;;
36575;SDS011;45700;50.930;5.168;2023-01-30T18:54:05;12.23;;;2.80;;
36575;SDS011;45700;50.930;5.168;2023-01-30T18:58:06;12.20;;;1.95;;
36575;SDS011;45700;50.930;5.168;2023-01-30T19:02:09;8.50;;;1.90;;
36575;SDS011;45700;50.930;5.168;2023-01-30T19:06:12;7.20;;;2.03;;
36575;SDS011;45700;50.930;5.168;2023-01-30T19:10:14;11.68;;;2.13;;
36575;SDS011;45700;50.930;5.168;2023-01-30T19:14:16;15.63;;;1.75;;
36575;SDS011;45700;50.930;5.168;2023-01-30T19:18:17;15.52;;;2.55;;
36575;SDS011;45700;50.930;5.168;2023-01-30T19:22:18;18.13;;;2.60;;
36575;SDS011;45700;50.930;5.168;2023-01-30T19:26:20;13.90;;;2.33;;
36575;SDS011;45700;50.930;5.168;2023-01-30T19:30:21;14.85;;;2.40;;
36575;SDS011;45700;50.930;5.168;2023-01-30T19:34:22;17.35;;;3.05;;
36575;SDS011;45700;50.930;5.168;2023-01-30T19:38:23;17.60;;;3.38;;
36575;SDS011;45700;50.930;5.168;2023-01-30T19:42:24;12.70;;;2.05;;
36575;SDS011;45700;50.930;5.168;2023-01-30T19:46:25;11.43;;;1.63;;
36575;SDS011;45700;50.930;5.168;2023-01-30T19:50:27;15.10;;;2.47;;
36575;SDS011;45700;50.930;5.168;2023-01-30T19:54:28;11.52;;;2.08;;
36575;SDS011;45700;50.930;5.168;2023-01-30T19:58:30;10.75;;;1.67;;
36575;SDS011;45700;50.930;5.168;2023-01-30T20:02:31;11.18;;;1.92;;
36575;SDS011;45700;50.930;5.168;2023-01-30T20:06:33;23.02;;;2.33;;
36575;SDS011;45700;50.930;5.168;2023-01-30T20:10:34;17.75;;;2.13;;
36575;SDS011;45700;50.930;5.168;2023-01-30T20:14:35;8.05;;;2.33;;
36575;SDS011;45700;50.930;5.168;2023-01-30T20:18:36;7.85;;;2.00;;
36575;SDS011;45700;50.930;5.168;2023-01-30T20:22:37;18.70;;;2.50;;
36575;SDS011;45700;50.930;5.168;2023-01-30T20:26:38;12.52;;;1.55;;
36575;SDS011;45700;50.930;5.168;2023-01-30T20:30:39;16.05;;;1.90;;
36575;SDS011;45700;50.930;5.168;2023-01-30T20:34:40;18.60;;;2.22;;
36575;SDS011;45700;50.930;5.168;2023-01-30T20:38:42;14.20;;;2.95;;
36575;SDS011;45700;50.930;5.168;2023-01-30T20:42:43;16.65;;;1.77;;
36575;SDS011;45700;50.930;5.168;2023-01-30T20:46:45;15.07;;;2.42;;
36575;SDS011;45700;50.930;5.168;2023-01-30T20:50:46;23.17;;;2.08;;
36575;SDS011;45700;50.930;5.168;2023-01-30T20:54:47;16.98;;;2.13;;
36575;SDS011;45700;50.930;5.168;2023-01-30T20:58:48;11.93;;;2.10;;
36575;SDS011;45700;50.930;5.168;2023-01-30T21:02:49;14.55;;;1.77;;
36575;SDS011;45700;50.930;5.168;2023-01-30T21:06:51;17.02;;;2.25;;
36575;SDS011;45700;50.930;5.168;2023-01-30T21:10:53;17.40;;;2.90;;
36575;SDS011;45700;50.930;5.168;2023-01-30T21:14:54;10.07;;;2.20;;
36575;SDS011;45700;50.930;5.168;2023-01-30T21:18:57;19.73;;;2.45;;
36575;SDS011;45700;50.930;5.168;2023-01-30T21:22:58;10.52;;;2.30;;
36575;SDS011;45700;50.930;5.168;2023-01-30T21:26:59;16.85;;;2.33;;
36575;SDS011;45700;50.930;5.168;2023-01-30T21:31:11;9.07;;;1.75;;
36575;SDS011;45700;50.930;5.168;2023-01-30T21:35:12;19.48;;;2.70;;
36575;SDS011;45700;50.930;5.168;2023-01-30T21:39:13;6.28;;;1.55;;
36575;SDS011;45700;50.930;5.168;2023-01-30T21:47:34;11.52;;;2.72;;
36575;SDS011;45700;50.930;5.168;2023-01-30T21:51:35;11.52;;;1.85;;
36575;SDS011;45700;50.930;5.168;2023-01-30T21:55:37;11.65;;;2.00;;
36575;SDS011;45700;50.930;5.168;2023-01-30T21:59:38;13.38;;;1.85;;
36575;SDS011;45700;50.930;5.168;2023-01-30T22:03:39;9.55;;;2.35;;
36575;SDS011;45700;50.930;5.168;2023-01-30T22:07:40;13.30;;;2.42;;
36575;SDS011;45700;50.930;5.168;2023-01-30T22:11:41;8.43;;;2.10;;
36575;SDS011;45700;50.930;5.168;2023-01-30T22:15:42;17.52;;;3.75;;
36575;SDS011;45700;50.930;5.168;2023-01-30T22:19:43;13.25;;;2.08;;
36575;SDS011;45700;50.930;5.168;2023-01-30T22:23:46;12.98;;;2.22;;
36575;SDS011;45700;50.930;5.168;2023-01-30T22:27:47;12.80;;;2.60;;
36575;SDS011;45700;50.930;5.168;2023-01-30T22:31:48;8.50;;;2.10;;
36575;SDS011;45700;50.930;5.168;2023-01-30T22:35:49;14.85;;;2.97;;
36575;SDS011;45700;50.930;5.168;2023-01-30T22:39:50;13.80;;;2.63;;
36575;SDS011;45700;50.930;5.168;2023-01-30T22:43:55;14.20;;;2.70;;
36575;SDS011;45700;50.930;5.168;2023-01-30T22:47:56;6.25;;;2.20;;
36575;SDS011;45700;50.930;5.168;2023-01-30T22:51:57;13.38;;;3.33;;
36575;SDS011;45700;50.930;5.168;2023-01-30T22:56:01;17.90;;;2.65;;
36575;SDS011;45700;50.930;5.168;2023-01-30T23:00:03;11.18;;;2.30;;
36575;SDS011;45700;50.930;5.168;2023-01-30T23:08:11;17.85;;;3.33;;
36575;SDS011;45700;50.930;5.168;2023-01-30T23:12:12;22.65;;;4.03;;
36575;SDS011;45700;50.930;5.168;2023-01-30T23:16:32;11.35;;;2.70;;
36575;SDS011;45700;50.930;5.168;2023-01-30T23:20:33;18.80;;;3.15;;
36575;SDS011;45700;50.930;5.168;2023-01-30T23:24:34;19.02;;;3.17;;
36575;SDS011;45700;50.930;5.168;2023-01-30T23:28:36;15.85;;;3.80;;
36575;SDS011;45700;50.930;5.168;2023-01-30T23:32:37;18.77;;;4.03;;
36575;SDS011;45700;50.930;5.168;2023-01-30T23:36:38;15.38;;;3.45;;
36575;SDS011;45700;50.930;5.168;2023-01-30T23:40:40;11.63;;;2.95;;
36575;SDS011;45700;50.930;5.168;2023-01-30T23:44:41;15.57;;;3.08;;
36575;SDS011;45700;50.930;5.168;2023-01-30T23:48:42;13.75;;;3.00;;
36575;SDS011;45700;50.930;5.168;2023-01-30T23:52:43;19.92;;;3.45;;
36575;SDS011;45700;50.930;5.168;2023-01-30T23:56:44;12.50;;;3.42;;
